Repubbli Del Brasile — IBZB — position and weather

sailwx.info

Track history (hours):
 
Tides and Currents Weather Stations Pressure Air Temp Water Temp Dewpoint Dewpoint Depression Visibility Wind Speed Wind Dir Waves Ship Positions

Repubbli Del Brasile

Last reported at 2014-Nov-22 17:30 UTC. Time now 2014-Nov-22 17:57 UTC.
Position N 40°40' E 013°28'.

Length 209 m; draft 9.7 m.

Type: Ship (hazmat cat A). MMSI: 247310000.

Date/timePositionNaut miles runAvg speedWind from/ knotsBaromVisibWave heightAir tempDewpointWater temp
2014-Nov-22 17:30N 40°40' E 013°28'22714.2
2014-Nov-22 01:31N 43°07' E 009°37'1515.6
2014-Nov-22 00:33N 43°22' E 009°32'1615.8
2014-Nov-21 23:33N 43°37' E 009°25'1615.8
2014-Nov-21 22:33N 43°51' E 009°16'1615.7
2014-Nov-21 21:33N 44°06' E 009°07'1615.5
2014-Nov-21 20:33N 44°20' E 008°58'6 5.6
2014-Nov-21 19:33N 44°24' E 008°53'0 0.0
2014-Nov-21 18:34N 44°24' E 008°53'0 0.0
2014-Nov-21 17:34N 44°24' E 008°53'0 0.0
2014-Nov-21 16:33N 44°24' E 008°53'0 0.0
2014-Nov-21 15:34N 44°24' E 008°53'0 0.0
2014-Nov-21 14:34N 44°24' E 008°53'0 0.0
2014-Nov-21 13:34N 44°24' E 008°53'0 0.0
2014-Nov-21 12:33N 44°24' E 008°53'0 0.0
2014-Nov-21 11:34N 44°24' E 008°53'0 0.0
2014-Nov-21 10:34N 44°24' E 008°53'0 0.0
2014-Nov-21 09:34N 44°24' E 008°53'0 0.0
2014-Nov-21 08:34N 44°24' E 008°53'0 0.0
2014-Nov-21 07:34N 44°24' E 008°53'0 0.0
2014-Nov-21 06:33N 44°24' E 008°53'0 0.0
2014-Nov-21 05:34N 44°24' E 008°53'0 0.0
2014-Nov-21 04:34N 44°24' E 008°53'0 0.0
2014-Nov-21 03:34N 44°24' E 008°53'0 0.0
2014-Nov-21 02:33N 44°24' E 008°53'0 0.0
2014-Nov-21 01:33N 44°24' E 008°53'0 0.0
2014-Nov-21 00:34N 44°24' E 008°53'0 0.0
2014-Nov-20 23:33N 44°24' E 008°53'0 0.0
2014-Nov-20 22:33N 44°24' E 008°53'0 0.0
2014-Nov-20 21:34N 44°24' E 008°53'0 0.0
2014-Nov-20 20:33N 44°24' E 008°53'0 0.0
2014-Nov-20 19:34N 44°24' E 008°53'0 0.0
2014-Nov-20 18:33N 44°24' E 008°53'0 0.0
2014-Nov-20 17:34N 44°24' E 008°53'0 0.0
2014-Nov-20 16:34N 44°24' E 008°53'0 0.0
2014-Nov-20 15:33N 44°24' E 008°53'0 0.0
2014-Nov-20 14:33N 44°24' E 008°53'0 0.0
2014-Nov-20 13:33N 44°24' E 008°53'0 0.0
2014-Nov-20 12:33N 44°24' E 008°53'0 0.0
2014-Nov-20 11:34N 44°24' E 008°53'0 0.0
2014-Nov-20 10:33N 44°24' E 008°53'0 0.0
2014-Nov-20 09:33N 44°24' E 008°53'0 0.0
2014-Nov-20 08:33N 44°24' E 008°53'0 0.0
2014-Nov-20 07:33N 44°24' E 008°53'0 0.0
2014-Nov-20 06:33N 44°24' E 008°53'0 0.2
2014-Nov-20 05:33N 44°24' E 008°53'5 4.5
2014-Nov-20 04:32N 44°21' E 008°58'8 8.3
2014-Nov-20 03:34N 44°15' E 008°52'1616.3
2014-Nov-20 02:33N 44°04' E 008°34'1816.0
2014-Nov-20 01:26N 43°53' E 008°15'3415.6
2014-Nov-19 23:15N 43°31' E 007°39'1516.2
2014-Nov-19 22:20N 43°21' E 007°24'1316.4
2014-Nov-19 21:33N 43°13' E 007°10'1616.0
2014-Nov-19 20:33N 43°03' E 006°53'1615.8
2014-Nov-19 19:34N 42°53' E 006°36'1515.2
2014-Nov-19 18:34N 42°51' E 006°16'1515.4
2014-Nov-19 17:33N 42°52' E 005°55'1616.3
2014-Nov-19 16:34N 43°01' E 005°36'1817.5
2014-Nov-19 15:33N 43°09' E 005°15'1010.4
2014-Nov-19 14:33N 43°20' E 005°17'2 2.3
2014-Nov-19 13:32N 43°21' E 005°20'0 0.0
2014-Nov-19 12:28N 43°21' E 005°20'0 0.0
2014-Nov-19 11:31N 43°21' E 005°20'0 0.0
2014-Nov-19 10:24N 43°21' E 005°20'0 0.0
2014-Nov-19 09:30N 43°21' E 005°20'0 0.0
2014-Nov-19 08:33N 43°21' E 005°20'0 0.0
2014-Nov-19 07:29N 43°21' E 005°20'0 0.0
2014-Nov-19 06:29N 43°21' E 005°20'0 0.0
2014-Nov-19 05:28N 43°21' E 005°20'0 0.0
2014-Nov-19 04:28N 43°21' E 005°20'1 0.7
2014-Nov-19 03:33N 43°21' E 005°19'9 9.1
2014-Nov-19 02:34N 43°15' E 005°11'1312.6
2014-Nov-19 01:33N 43°03' E 005°03'1514.7
2014-Nov-19 00:33N 42°51' E 004°51'5415.8
2014-Nov-18 21:10N 42°09' E 004°08'1615.4
2014-Nov-18 20:10N 41°56' E 003°55'1015.3
2014-Nov-18 19:31N 41°48' E 003°47'1713.4
2014-Nov-18 18:16N 41°39' E 003°29'810.0
2014-Nov-18 17:29N 41°34' E 003°20'9 9.6
2014-Nov-18 16:30N 41°28' E 003°10'9 9.9
2014-Nov-18 15:33N 41°22' E 003°00'1312.3
2014-Nov-18 14:31N 41°15' E 002°46'1313.7
2014-Nov-18 13:32N 41°08' E 002°32'1615.9
2014-Nov-18 12:33N 40°58' E 002°15'1515.4
2014-Nov-18 11:33N 40°49' E 001°58'1615.5
2014-Nov-18 10:33N 40°40' E 001°42'1515.1
2014-Nov-18 09:33N 40°31' E 001°26'1515.0
2014-Nov-18 08:33N 40°23' E 001°09'7815.3
2014-Nov-18 03:30N 39°32' W 000°07'1111.1
2014-Nov-18 02:33N 39°26' W 000°18'0 0.2
2014-Nov-18 01:32N 39°27' W 000°18'0 0.0
2014-Nov-18 00:31N 39°27' W 000°18'0 0.0
2014-Nov-17 23:28N 39°27' W 000°18'0 0.0
2014-Nov-17 22:28N 39°27' W 000°18'0 0.0
2014-Nov-17 21:33N 39°27' W 000°18'0 0.0
2014-Nov-17 20:33N 39°27' W 000°18'0 0.0
2014-Nov-17 19:32N 39°27' W 000°18'0 0.0
2014-Nov-17 18:32N 39°27' W 000°18'0 0.0
2014-Nov-17 17:31N 39°27' W 000°18'0 0.0
2014-Nov-17 16:31N 39°27' W 000°18'0 0.0
2014-Nov-17 15:31N 39°27' W 000°18'0 0.0
2014-Nov-17 14:33N 39°27' W 000°18'0 0.0
2014-Nov-17 13:33N 39°27' W 000°18'0 0.0
2014-Nov-17 12:32N 39°27' W 000°18'0 0.0
2014-Nov-17 11:32N 39°27' W 000°18'0 0.0
2014-Nov-17 10:31N 39°27' W 000°18'0 0.0
2014-Nov-17 09:31N 39°27' W 000°18'0 0.0
2014-Nov-17 08:31N 39°27' W 000°18'0 0.0
2014-Nov-17 07:33N 39°27' W 000°18'0 0.0
2014-Nov-17 06:33N 39°27' W 000°18'0 0.0
2014-Nov-17 05:32N 39°27' W 000°18'4 3.6
2014-Nov-17 04:33N 39°24' W 000°15'9913.2
2014-Nov-16 21:03N 37°46' W 000°20'816.2
2014-Nov-16 20:33N 37°39' W 000°26'1916.6
2014-Nov-16 19:26N 37°25' W 000°42'23316.5
2014-Nov-16 05:21N 36°00' W 005°12'1619.6
2014-Nov-16 04:33N 35°57' W 005°31'  
Track history (hours):
 
Tides and Currents Weather Stations Pressure Air Temp Water Temp Dewpoint Dewpoint Depression Visibility Wind Speed Wind Dir Waves Ship Positions

Repubbli Del Brasile

Last reported at 2014-Nov-22 17:30 UTC. Time now 2014-Nov-22 17:57 UTC.
Position N 40°40' E 013°28'.

Length 209 m; draft 9.7 m.

Type: Ship (hazmat cat A). MMSI: 247310000.

Date/timePositionNaut miles runAvg speedWind from/ knotsBaromVisibWave heightAir tempDewpointWater temp
2014-Nov-22 17:30N 40°40' E 013°28'22714.2
2014-Nov-22 01:31N 43°07' E 009°37'1515.6
2014-Nov-22 00:33N 43°22' E 009°32'1615.8
2014-Nov-21 23:33N 43°37' E 009°25'1615.8
2014-Nov-21 22:33N 43°51' E 009°16'1615.7
2014-Nov-21 21:33N 44°06' E 009°07'1615.5
2014-Nov-21 20:33N 44°20' E 008°58'6 5.6
2014-Nov-21 19:33N 44°24' E 008°53'0 0.0
2014-Nov-21 18:34N 44°24' E 008°53'0 0.0
2014-Nov-21 17:34N 44°24' E 008°53'0 0.0
2014-Nov-21 16:33N 44°24' E 008°53'0 0.0
2014-Nov-21 15:34N 44°24' E 008°53'0 0.0
2014-Nov-21 14:34N 44°24' E 008°53'0 0.0
2014-Nov-21 13:34N 44°24' E 008°53'0 0.0
2014-Nov-21 12:33N 44°24' E 008°53'0 0.0
2014-Nov-21 11:34N 44°24' E 008°53'0 0.0
2014-Nov-21 10:34N 44°24' E 008°53'0 0.0
2014-Nov-21 09:34N 44°24' E 008°53'0 0.0
2014-Nov-21 08:34N 44°24' E 008°53'0 0.0
2014-Nov-21 07:34N 44°24' E 008°53'0 0.0
2014-Nov-21 06:33N 44°24' E 008°53'0 0.0
2014-Nov-21 05:34N 44°24' E 008°53'0 0.0
2014-Nov-21 04:34N 44°24' E 008°53'0 0.0
2014-Nov-21 03:34N 44°24' E 008°53'0 0.0
2014-Nov-21 02:33N 44°24' E 008°53'0 0.0
2014-Nov-21 01:33N 44°24' E 008°53'0 0.0
2014-Nov-21 00:34N 44°24' E 008°53'0 0.0
2014-Nov-20 23:33N 44°24' E 008°53'0 0.0
2014-Nov-20 22:33N 44°24' E 008°53'0 0.0
2014-Nov-20 21:34N 44°24' E 008°53'0 0.0
2014-Nov-20 20:33N 44°24' E 008°53'0 0.0
2014-Nov-20 19:34N 44°24' E 008°53'0 0.0
2014-Nov-20 18:33N 44°24' E 008°53'0 0.0
2014-Nov-20 17:34N 44°24' E 008°53'0 0.0
2014-Nov-20 16:34N 44°24' E 008°53'0 0.0
2014-Nov-20 15:33N 44°24' E 008°53'0 0.0
2014-Nov-20 14:33N 44°24' E 008°53'0 0.0
2014-Nov-20 13:33N 44°24' E 008°53'0 0.0
2014-Nov-20 12:33N 44°24' E 008°53'0 0.0
2014-Nov-20 11:34N 44°24' E 008°53'0 0.0
2014-Nov-20 10:33N 44°24' E 008°53'0 0.0
2014-Nov-20 09:33N 44°24' E 008°53'0 0.0
2014-Nov-20 08:33N 44°24' E 008°53'0 0.0
2014-Nov-20 07:33N 44°24' E 008°53'0 0.0
2014-Nov-20 06:33N 44°24' E 008°53'0 0.2
2014-Nov-20 05:33N 44°24' E 008°53'5 4.5
2014-Nov-20 04:32N 44°21' E 008°58'8 8.3
2014-Nov-20 03:34N 44°15' E 008°52'1616.3
2014-Nov-20 02:33N 44°04' E 008°34'1816.0
2014-Nov-20 01:26N 43°53' E 008°15'3415.6
2014-Nov-19 23:15N 43°31' E 007°39'1516.2
2014-Nov-19 22:20N 43°21' E 007°24'1316.4
2014-Nov-19 21:33N 43°13' E 007°10'1616.0
2014-Nov-19 20:33N 43°03' E 006°53'1615.8
2014-Nov-19 19:34N 42°53' E 006°36'1515.2
2014-Nov-19 18:34N 42°51' E 006°16'1515.4
2014-Nov-19 17:33N 42°52' E 005°55'1616.3
2014-Nov-19 16:34N 43°01' E 005°36'1817.5
2014-Nov-19 15:33N 43°09' E 005°15'1010.4
2014-Nov-19 14:33N 43°20' E 005°17'2 2.3
2014-Nov-19 13:32N 43°21' E 005°20'0 0.0
2014-Nov-19 12:28N 43°21' E 005°20'0 0.0
2014-Nov-19 11:31N 43°21' E 005°20'0 0.0
2014-Nov-19 10:24N 43°21' E 005°20'0 0.0
2014-Nov-19 09:30N 43°21' E 005°20'0 0.0
2014-Nov-19 08:33N 43°21' E 005°20'0 0.0
2014-Nov-19 07:29N 43°21' E 005°20'0 0.0
2014-Nov-19 06:29N 43°21' E 005°20'0 0.0
2014-Nov-19 05:28N 43°21' E 005°20'0 0.0
2014-Nov-19 04:28N 43°21' E 005°20'1 0.7
2014-Nov-19 03:33N 43°21' E 005°19'9 9.1
2014-Nov-19 02:34N 43°15' E 005°11'1312.6
2014-Nov-19 01:33N 43°03' E 005°03'1514.7
2014-Nov-19 00:33N 42°51' E 004°51'5415.8
2014-Nov-18 21:10N 42°09' E 004°08'1615.4
2014-Nov-18 20:10N 41°56' E 003°55'1015.3
2014-Nov-18 19:31N 41°48' E 003°47'1713.4
2014-Nov-18 18:16N 41°39' E 003°29'810.0
2014-Nov-18 17:29N 41°34' E 003°20'9 9.6
2014-Nov-18 16:30N 41°28' E 003°10'9 9.9
2014-Nov-18 15:33N 41°22' E 003°00'1312.3
2014-Nov-18 14:31N 41°15' E 002°46'1313.7
2014-Nov-18 13:32N 41°08' E 002°32'1615.9
2014-Nov-18 12:33N 40°58' E 002°15'1515.4
2014-Nov-18 11:33N 40°49' E 001°58'1615.5
2014-Nov-18 10:33N 40°40' E 001°42'1515.1
2014-Nov-18 09:33N 40°31' E 001°26'1515.0
2014-Nov-18 08:33N 40°23' E 001°09'7815.3
2014-Nov-18 03:30N 39°32' W 000°07'1111.1
2014-Nov-18 02:33N 39°26' W 000°18'0 0.2
2014-Nov-18 01:32N 39°27' W 000°18'0 0.0
2014-Nov-18 00:31N 39°27' W 000°18'0 0.0
2014-Nov-17 23:28N 39°27' W 000°18'0 0.0
2014-Nov-17 22:28N 39°27' W 000°18'0 0.0
2014-Nov-17 21:33N 39°27' W 000°18'0 0.0
2014-Nov-17 20:33N 39°27' W 000°18'0 0.0
2014-Nov-17 19:32N 39°27' W 000°18'0 0.0
2014-Nov-17 18:32N 39°27' W 000°18'0 0.0
2014-Nov-17 17:31N 39°27' W 000°18'0 0.0
2014-Nov-17 16:31N 39°27' W 000°18'0 0.0
2014-Nov-17 15:31N 39°27' W 000°18'0 0.0
2014-Nov-17 14:33N 39°27' W 000°18'0 0.0
2014-Nov-17 13:33N 39°27' W 000°18'0 0.0
2014-Nov-17 12:32N 39°27' W 000°18'0 0.0
2014-Nov-17 11:32N 39°27' W 000°18'0 0.0
2014-Nov-17 10:31N 39°27' W 000°18'0 0.0
2014-Nov-17 09:31N 39°27' W 000°18'0 0.0
2014-Nov-17 08:31N 39°27' W 000°18'0 0.0
2014-Nov-17 07:33N 39°27' W 000°18'0 0.0
2014-Nov-17 06:33N 39°27' W 000°18'0 0.0
2014-Nov-17 05:32N 39°27' W 000°18'4 3.6
2014-Nov-17 04:33N 39°24' W 000°15'9913.2
2014-Nov-16 21:03N 37°46' W 000°20'816.2
2014-Nov-16 20:33N 37°39' W 000°26'1916.6
2014-Nov-16 19:26N 37°25' W 000°42'23316.5
2014-Nov-16 05:21N 36°00' W 005°12'1619.6
2014-Nov-16 04:33N 35°57' W 005°31'  

Dump ship's entire track history